sensor_id;sensor_type;location;lat;lon;timestamp;pressure;altitude;pressure_sealevel;temperature
58929;BMP180;44713;53.378;10.022;2023-02-25T00:01:10;99511.00;;;3.90
58929;BMP180;44713;53.378;10.022;2023-02-25T00:03:37;99515.00;;;3.90
58929;BMP180;44713;53.378;10.022;2023-02-25T00:06:04;99517.00;;;3.90
58929;BMP180;44713;53.378;10.022;2023-02-25T00:08:30;99514.00;;;3.90
58929;BMP180;44713;53.378;10.022;2023-02-25T00:11:01;99516.00;;;3.80
58929;BMP180;44713;53.378;10.022;2023-02-25T00:13:27;99512.00;;;3.80
58929;BMP180;44713;53.378;10.022;2023-02-25T00:15:53;99517.00;;;3.80
58929;BMP180;44713;53.378;10.022;2023-02-25T00:18:18;99531.00;;;3.80
58929;BMP180;44713;53.378;10.022;2023-02-25T00:20:44;99528.00;;;3.80
58929;BMP180;44713;53.378;10.022;2023-02-25T00:23:09;99529.00;;;3.70
58929;BMP180;44713;53.378;10.022;2023-02-25T00:25:35;99524.00;;;3.60
58929;BMP180;44713;53.378;10.022;2023-02-25T00:28:00;99523.00;;;3.60
58929;BMP180;44713;53.378;10.022;2023-02-25T00:30:31;99528.00;;;3.60
58929;BMP180;44713;53.378;10.022;2023-02-25T00:32:56;99533.00;;;3.50
58929;BMP180;44713;53.378;10.022;2023-02-25T00:35:22;99542.00;;;3.50
58929;BMP180;44713;53.378;10.022;2023-02-25T00:37:50;99533.00;;;3.50
58929;BMP180;44713;53.378;10.022;2023-02-25T00:40:15;99534.00;;;3.60
58929;BMP180;44713;53.378;10.022;2023-02-25T00:42:41;99539.00;;;3.70
58929;BMP180;44713;53.378;10.022;2023-02-25T00:45:07;99545.00;;;3.70
58929;BMP180;44713;53.378;10.022;2023-02-25T00:47:33;99540.00;;;3.80
58929;BMP180;44713;53.378;10.022;2023-02-25T00:49:58;99564.00;;;3.80
58929;BMP180;44713;53.378;10.022;2023-02-25T00:52:24;99547.00;;;3.80
58929;BMP180;44713;53.378;10.022;2023-02-25T00:54:49;99555.00;;;3.80
58929;BMP180;44713;53.378;10.022;2023-02-25T00:57:14;99564.00;;;3.80
58929;BMP180;44713;53.378;10.022;2023-02-25T00:59:40;99564.00;;;3.80
58929;BMP180;44713;53.378;10.022;2023-02-25T01:02:05;99568.00;;;3.80
58929;BMP180;44713;53.378;10.022;2023-02-25T01:04:31;99567.00;;;3.80
58929;BMP180;44713;53.378;10.022;2023-02-25T01:06:56;99573.00;;;3.80
58929;BMP180;44713;53.378;10.022;2023-02-25T01:09:22;99583.00;;;3.80
58929;BMP180;44713;53.378;10.022;2023-02-25T01:11:48;99583.00;;;3.70
58929;BMP180;44713;53.378;10.022;2023-02-25T01:14:17;99580.00;;;3.80
58929;BMP180;44713;53.378;10.022;2023-02-25T01:16:44;99585.00;;;3.80
58929;BMP180;44713;53.378;10.022;2023-02-25T01:19:16;99591.00;;;3.70
58929;BMP180;44713;53.378;10.022;2023-02-25T01:21:45;99595.00;;;3.70
58929;BMP180;44713;53.378;10.022;2023-02-25T01:24:31;99597.00;;;3.70
58929;BMP180;44713;53.378;10.022;2023-02-25T01:26:59;99589.00;;;3.80
58929;BMP180;44713;53.378;10.022;2023-02-25T01:29:37;99603.00;;;3.70
58929;BMP180;44713;53.378;10.022;2023-02-25T01:32:09;99596.00;;;3.80
58929;BMP180;44713;53.378;10.022;2023-02-25T01:34:34;99604.00;;;3.70
58929;BMP180;44713;53.378;10.022;2023-02-25T01:37:02;99605.00;;;3.70
58929;BMP180;44713;53.378;10.022;2023-02-25T01:39:28;99609.00;;;3.70
58929;BMP180;44713;53.378;10.022;2023-02-25T01:41:56;99610.00;;;3.80
58929;BMP180;44713;53.378;10.022;2023-02-25T01:44:33;99620.00;;;3.60
58929;BMP180;44713;53.378;10.022;2023-02-25T01:46:59;99620.00;;;3.70
58929;BMP180;44713;53.378;10.022;2023-02-25T01:49:39;99622.00;;;3.60
58929;BMP180;44713;53.378;10.022;2023-02-25T01:52:12;99631.00;;;3.60
58929;BMP180;44713;53.378;10.022;2023-02-25T01:54:38;99625.00;;;3.60
58929;BMP180;44713;53.378;10.022;2023-02-25T01:57:08;99635.00;;;3.60
58929;BMP180;44713;53.378;10.022;2023-02-25T01:59:35;99638.00;;;3.70
58929;BMP180;44713;53.378;10.022;2023-02-25T02:02:02;99639.00;;;3.70
58929;BMP180;44713;53.378;10.022;2023-02-25T02:04:29;99639.00;;;3.60
58929;BMP180;44713;53.378;10.022;2023-02-25T02:06:55;99646.00;;;3.60
58929;BMP180;44713;53.378;10.022;2023-02-25T02:09:23;99647.00;;;3.70
58929;BMP180;44713;53.378;10.022;2023-02-25T02:11:50;99647.00;;;3.70
58929;BMP180;44713;53.378;10.022;2023-02-25T02:14:19;99654.00;;;3.70
58929;BMP180;44713;53.378;10.022;2023-02-25T02:19:43;99673.00;;;3.70
58929;BMP180;44713;53.378;10.022;2023-02-25T02:33:16;99671.00;;;3.70
58929;BMP180;44713;53.378;10.022;2023-02-25T02:35:55;99677.00;;;3.70
58929;BMP180;44713;53.378;10.022;2023-02-25T02:38:34;99680.00;;;3.70
58929;BMP180;44713;53.378;10.022;2023-02-25T02:41:17;99686.00;;;3.70
58929;BMP180;44713;53.378;10.022;2023-02-25T02:44:11;99689.00;;;3.70
58929;BMP180;44713;53.378;10.022;2023-02-25T02:46:51;99697.00;;;3.70
58929;BMP180;44713;53.378;10.022;2023-02-25T02:49:20;99698.00;;;3.70
58929;BMP180;44713;53.378;10.022;2023-02-25T02:52:04;99697.00;;;3.70
58929;BMP180;44713;53.378;10.022;2023-02-25T02:54:34;99699.00;;;3.60
58929;BMP180;44713;53.378;10.022;2023-02-25T02:57:01;99705.00;;;3.70
58929;BMP180;44713;53.378;10.022;2023-02-25T02:59:34;99710.00;;;3.70
58929;BMP180;44713;53.378;10.022;2023-02-25T03:02:08;99705.00;;;3.60
58929;BMP180;44713;53.378;10.022;2023-02-25T03:04:37;99722.00;;;3.70
58929;BMP180;44713;53.378;10.022;2023-02-25T03:07:09;99722.00;;;3.60
58929;BMP180;44713;53.378;10.022;2023-02-25T03:09:37;99729.00;;;3.60
58929;BMP180;44713;53.378;10.022;2023-02-25T03:12:03;99723.00;;;3.60
58929;BMP180;44713;53.378;10.022;2023-02-25T03:14:32;99731.00;;;3.50
58929;BMP180;44713;53.378;10.022;2023-02-25T03:17:10;99734.00;;;3.60
58929;BMP180;44713;53.378;10.022;2023-02-25T03:22:24;99731.00;;;3.60
58929;BMP180;44713;53.378;10.022;2023-02-25T03:24:56;99738.00;;;3.60
58929;BMP180;44713;53.378;10.022;2023-02-25T03:27:29;99745.00;;;3.50
58929;BMP180;44713;53.378;10.022;2023-02-25T03:30:06;99739.00;;;3.40
58929;BMP180;44713;53.378;10.022;2023-02-25T03:32:41;99748.00;;;3.30
58929;BMP180;44713;53.378;10.022;2023-02-25T03:35:08;99759.00;;;3.30
58929;BMP180;44713;53.378;10.022;2023-02-25T03:37:36;99765.00;;;3.20
58929;BMP180;44713;53.378;10.022;2023-02-25T03:40:04;99755.00;;;3.20
58929;BMP180;44713;53.378;10.022;2023-02-25T03:42:42;99769.00;;;3.10
58929;BMP180;44713;53.378;10.022;2023-02-25T03:45:10;99772.00;;;3.20
58929;BMP180;44713;53.378;10.022;2023-02-25T03:47:38;99777.00;;;3.10
58929;BMP180;44713;53.378;10.022;2023-02-25T03:50:23;99779.00;;;3.10
58929;BMP180;44713;53.378;10.022;2023-02-25T03:52:54;99791.00;;;3.00
58929;BMP180;44713;53.378;10.022;2023-02-25T03:55:40;99808.00;;;3.00
58929;BMP180;44713;53.378;10.022;2023-02-25T03:58:07;99808.00;;;2.90
58929;BMP180;44713;53.378;10.022;2023-02-25T04:00:32;99818.00;;;2.90
58929;BMP180;44713;53.378;10.022;2023-02-25T04:02:58;99805.00;;;2.90
58929;BMP180;44713;53.378;10.022;2023-02-25T04:05:24;99807.00;;;2.80
58929;BMP180;44713;53.378;10.022;2023-02-25T04:07:54;99824.00;;;2.90
58929;BMP180;44713;53.378;10.022;2023-02-25T04:10:20;99824.00;;;2.90
58929;BMP180;44713;53.378;10.022;2023-02-25T04:12:46;99824.00;;;2.90
58929;BMP180;44713;53.378;10.022;2023-02-25T04:15:11;99823.00;;;2.90
58929;BMP180;44713;53.378;10.022;2023-02-25T04:17:38;99838.00;;;2.90
58929;BMP180;44713;53.378;10.022;2023-02-25T04:20:04;99832.00;;;2.80
58929;BMP180;44713;53.378;10.022;2023-02-25T04:22:31;99850.00;;;2.70
58929;BMP180;44713;53.378;10.022;2023-02-25T04:24:56;99844.00;;;2.70
58929;BMP180;44713;53.378;10.022;2023-02-25T04:27:22;99848.00;;;2.70
58929;BMP180;44713;53.378;10.022;2023-02-25T04:29:47;99847.00;;;2.70
58929;BMP180;44713;53.378;10.022;2023-02-25T04:32:12;99855.00;;;2.70
58929;BMP180;44713;53.378;10.022;2023-02-25T04:34:38;99845.00;;;2.70
58929;BMP180;44713;53.378;10.022;2023-02-25T04:37:03;99843.00;;;2.80
58929;BMP180;44713;53.378;10.022;2023-02-25T04:39:30;99846.00;;;2.80
58929;BMP180;44713;53.378;10.022;2023-02-25T04:41:56;99848.00;;;2.70
58929;BMP180;44713;53.378;10.022;2023-02-25T04:44:21;99847.00;;;2.70
58929;BMP180;44713;53.378;10.022;2023-02-25T04:46:47;99848.00;;;2.70
58929;BMP180;44713;53.378;10.022;2023-02-25T04:49:18;99852.00;;;2.70
58929;BMP180;44713;53.378;10.022;2023-02-25T04:51:44;99855.00;;;2.70
58929;BMP180;44713;53.378;10.022;2023-02-25T04:54:10;99852.00;;;2.70
58929;BMP180;44713;53.378;10.022;2023-02-25T04:56:36;99851.00;;;2.70
58929;BMP180;44713;53.378;10.022;2023-02-25T04:59:02;99848.00;;;2.70
58929;BMP180;44713;53.378;10.022;2023-02-25T05:01:27;99850.00;;;2.70
58929;BMP180;44713;53.378;10.022;2023-02-25T05:03:54;99855.00;;;2.70
58929;BMP180;44713;53.378;10.022;2023-02-25T05:06:24;99852.00;;;2.70
58929;BMP180;44713;53.378;10.022;2023-02-25T05:08:49;99852.00;;;2.70
58929;BMP180;44713;53.378;10.022;2023-02-25T05:11:16;99862.00;;;2.70
58929;BMP180;44713;53.378;10.022;2023-02-25T05:13:41;99853.00;;;2.70
58929;BMP180;44713;53.378;10.022;2023-02-25T05:16:12;99862.00;;;2.70
58929;BMP180;44713;53.378;10.022;2023-02-25T05:18:39;99870.00;;;2.70
58929;BMP180;44713;53.378;10.022;2023-02-25T05:21:11;99857.00;;;2.70
58929;BMP180;44713;53.378;10.022;2023-02-25T05:23:41;99867.00;;;2.60
58929;BMP180;44713;53.378;10.022;2023-02-25T05:26:08;99874.00;;;2.60
58929;BMP180;44713;53.378;10.022;2023-02-25T05:28:34;99868.00;;;2.70
58929;BMP180;44713;53.378;10.022;2023-02-25T05:31:04;99883.00;;;2.70
58929;BMP180;44713;53.378;10.022;2023-02-25T05:33:29;99890.00;;;2.70
58929;BMP180;44713;53.378;10.022;2023-02-25T05:35:54;99885.00;;;2.70
58929;BMP180;44713;53.378;10.022;2023-02-25T05:38:20;99887.00;;;2.70
58929;BMP180;44713;53.378;10.022;2023-02-25T05:40:45;99892.00;;;2.70
58929;BMP180;44713;53.378;10.022;2023-02-25T05:43:11;99889.00;;;2.80
58929;BMP180;44713;53.378;10.022;2023-02-25T05:45:36;99890.00;;;2.80
58929;BMP180;44713;53.378;10.022;2023-02-25T05:48:01;99897.00;;;2.80
58929;BMP180;44713;53.378;10.022;2023-02-25T05:50:27;99897.00;;;2.70
58929;BMP180;44713;53.378;10.022;2023-02-25T05:52:53;99904.00;;;2.80
58929;BMP180;44713;53.378;10.022;2023-02-25T05:55:18;99904.00;;;2.70
58929;BMP180;44713;53.378;10.022;2023-02-25T05:57:44;99902.00;;;2.70
58929;BMP180;44713;53.378;10.022;2023-02-25T06:00:10;99912.00;;;2.80
58929;BMP180;44713;53.378;10.022;2023-02-25T06:02:39;99910.00;;;2.80
58929;BMP180;44713;53.378;10.022;2023-02-25T06:05:06;99918.00;;;2.80
58929;BMP180;44713;53.378;10.022;2023-02-25T06:07:32;99913.00;;;2.80
58929;BMP180;44713;53.378;10.022;2023-02-25T06:09:58;99930.00;;;2.80
58929;BMP180;44713;53.378;10.022;2023-02-25T06:12:29;99929.00;;;2.80
58929;BMP180;44713;53.378;10.022;2023-02-25T06:14:55;99945.00;;;2.80
58929;BMP180;44713;53.378;10.022;2023-02-25T06:17:21;99932.00;;;2.80
58929;BMP180;44713;53.378;10.022;2023-02-25T06:19:49;99956.00;;;2.80
58929;BMP180;44713;53.378;10.022;2023-02-25T06:22:16;99951.00;;;2.80
58929;BMP180;44713;53.378;10.022;2023-02-25T06:24:42;99956.00;;;2.80
58929;BMP180;44713;53.378;10.022;2023-02-25T06:27:07;99972.00;;;2.80
58929;BMP180;44713;53.378;10.022;2023-02-25T06:29:32;99966.00;;;2.80
58929;BMP180;44713;53.378;10.022;2023-02-25T06:31:58;99983.00;;;2.80
58929;BMP180;44713;53.378;10.022;2023-02-25T06:34:23;99981.00;;;2.80
58929;BMP180;44713;53.378;10.022;2023-02-25T06:36:48;99982.00;;;2.80
58929;BMP180;44713;53.378;10.022;2023-02-25T06:39:14;99986.00;;;2.80
58929;BMP180;44713;53.378;10.022;2023-02-25T06:41:39;99985.00;;;2.70
58929;BMP180;44713;53.378;10.022;2023-02-25T06:44:05;99985.00;;;2.80
58929;BMP180;44713;53.378;10.022;2023-02-25T06:46:30;99987.00;;;2.80
58929;BMP180;44713;53.378;10.022;2023-02-25T06:48:56;99988.00;;;2.80
58929;BMP180;44713;53.378;10.022;2023-02-25T06:51:21;99994.00;;;2.80
58929;BMP180;44713;53.378;10.022;2023-02-25T06:53:47;99999.00;;;2.80
58929;BMP180;44713;53.378;10.022;2023-02-25T06:56:14;99996.00;;;2.80
58929;BMP180;44713;53.378;10.022;2023-02-25T06:58:40;100005.00;;;2.80
58929;BMP180;44713;53.378;10.022;2023-02-25T07:01:12;100010.00;;;2.80
58929;BMP180;44713;53.378;10.022;2023-02-25T07:03:38;100016.00;;;2.80
58929;BMP180;44713;53.378;10.022;2023-02-25T07:06:04;100026.00;;;2.70
58929;BMP180;44713;53.378;10.022;2023-02-25T07:08:30;100020.00;;;2.80
58929;BMP180;44713;53.378;10.022;2023-02-25T07:10:55;100024.00;;;2.70
58929;BMP180;44713;53.378;10.022;2023-02-25T07:13:21;100027.00;;;2.70
58929;BMP180;44713;53.378;10.022;2023-02-25T07:15:46;100030.00;;;2.70
58929;BMP180;44713;53.378;10.022;2023-02-25T07:18:12;100030.00;;;2.70
58929;BMP180;44713;53.378;10.022;2023-02-25T07:20:37;100035.00;;;2.70
58929;BMP180;44713;53.378;10.022;2023-02-25T07:23:06;100033.00;;;2.80
58929;BMP180;44713;53.378;10.022;2023-02-25T07:25:31;100041.00;;;2.70
58929;BMP180;44713;53.378;10.022;2023-02-25T07:27:57;100043.00;;;2.70
58929;BMP180;44713;53.378;10.022;2023-02-25T07:30:22;100053.00;;;2.60
58929;BMP180;44713;53.378;10.022;2023-02-25T07:32:49;100051.00;;;2.70
58929;BMP180;44713;53.378;10.022;2023-02-25T07:35:14;100048.00;;;2.50
58929;BMP180;44713;53.378;10.022;2023-02-25T07:37:40;100069.00;;;2.40
58929;BMP180;44713;53.378;10.022;2023-02-25T07:40:06;100080.00;;;2.40
58929;BMP180;44713;53.378;10.022;2023-02-25T07:42:40;100104.00;;;2.40
58929;BMP180;44713;53.378;10.022;2023-02-25T07:45:06;100104.00;;;2.40
58929;BMP180;44713;53.378;10.022;2023-02-25T07:47:31;100100.00;;;2.40
58929;BMP180;44713;53.378;10.022;2023-02-25T07:49:57;100108.00;;;2.40
58929;BMP180;44713;53.378;10.022;2023-02-25T07:52:22;100104.00;;;2.50
58929;BMP180;44713;53.378;10.022;2023-02-25T07:54:47;100106.00;;;2.50
58929;BMP180;44713;53.378;10.022;2023-02-25T07:57:13;100111.00;;;2.60
58929;BMP180;44713;53.378;10.022;2023-02-25T07:59:38;100105.00;;;2.60
58929;BMP180;44713;53.378;10.022;2023-02-25T08:02:04;100111.00;;;2.70
58929;BMP180;44713;53.378;10.022;2023-02-25T08:04:29;100122.00;;;2.80
58929;BMP180;44713;53.378;10.022;2023-02-25T08:06:55;100120.00;;;2.90
58929;BMP180;44713;53.378;10.022;2023-02-25T08:09:20;100117.00;;;2.80
58929;BMP180;44713;53.378;10.022;2023-02-25T08:11:46;100114.00;;;2.90
58929;BMP180;44713;53.378;10.022;2023-02-25T08:14:12;100113.00;;;2.90
58929;BMP180;44713;53.378;10.022;2023-02-25T08:16:37;100126.00;;;3.00
58929;BMP180;44713;53.378;10.022;2023-02-25T08:19:04;100122.00;;;3.10
58929;BMP180;44713;53.378;10.022;2023-02-25T08:21:30;100138.00;;;3.10
58929;BMP180;44713;53.378;10.022;2023-02-25T08:23:56;100129.00;;;3.10
58929;BMP180;44713;53.378;10.022;2023-02-25T08:26:22;100145.00;;;3.20
58929;BMP180;44713;53.378;10.022;2023-02-25T08:28:49;100142.00;;;3.30
58929;BMP180;44713;53.378;10.022;2023-02-25T08:31:15;100143.00;;;3.30
58929;BMP180;44713;53.378;10.022;2023-02-25T08:33:43;100154.00;;;3.30
58929;BMP180;44713;53.378;10.022;2023-02-25T08:36:15;100147.00;;;3.30
58929;BMP180;44713;53.378;10.022;2023-02-25T08:38:41;100152.00;;;3.30
58929;BMP180;44713;53.378;10.022;2023-02-25T08:41:08;100154.00;;;3.20
58929;BMP180;44713;53.378;10.022;2023-02-25T08:43:34;100153.00;;;3.20
58929;BMP180;44713;53.378;10.022;2023-02-25T08:46:03;100170.00;;;3.30
58929;BMP180;44713;53.378;10.022;2023-02-25T08:48:29;100159.00;;;3.20
58929;BMP180;44713;53.378;10.022;2023-02-25T08:50:54;100171.00;;;3.20
58929;BMP180;44713;53.378;10.022;2023-02-25T08:53:21;100178.00;;;3.10
58929;BMP180;44713;53.378;10.022;2023-02-25T08:55:47;100189.00;;;3.00
58929;BMP180;44713;53.378;10.022;2023-02-25T08:58:12;100202.00;;;3.00
58929;BMP180;44713;53.378;10.022;2023-02-25T09:00:38;100207.00;;;2.90
58929;BMP180;44713;53.378;10.022;2023-02-25T09:03:04;100220.00;;;2.80
58929;BMP180;44713;53.378;10.022;2023-02-25T09:05:30;100221.00;;;2.80
58929;BMP180;44713;53.378;10.022;2023-02-25T09:07:55;100217.00;;;2.90
58929;BMP180;44713;53.378;10.022;2023-02-25T09:10:20;100227.00;;;2.90
58929;BMP180;44713;53.378;10.022;2023-02-25T09:12:46;100233.00;;;3.00
58929;BMP180;44713;53.378;10.022;2023-02-25T09:15:12;100231.00;;;2.80
58929;BMP180;44713;53.378;10.022;2023-02-25T09:17:38;100240.00;;;2.90
58929;BMP180;44713;53.378;10.022;2023-02-25T09:20:04;100248.00;;;2.90
58929;BMP180;44713;53.378;10.022;2023-02-25T09:22:36;100257.00;;;2.90
58929;BMP180;44713;53.378;10.022;2023-02-25T09:25:03;100244.00;;;2.90
58929;BMP180;44713;53.378;10.022;2023-02-25T09:27:29;100267.00;;;2.90
58929;BMP180;44713;53.378;10.022;2023-02-25T09:29:54;100258.00;;;2.90
58929;BMP180;44713;53.378;10.022;2023-02-25T09:32:20;100272.00;;;3.00
58929;BMP180;44713;53.378;10.022;2023-02-25T09:34:46;100278.00;;;3.00
58929;BMP180;44713;53.378;10.022;2023-02-25T09:37:16;100272.00;;;3.00
58929;BMP180;44713;53.378;10.022;2023-02-25T09:39:41;100272.00;;;3.10
58929;BMP180;44713;53.378;10.022;2023-02-25T09:42:19;100272.00;;;3.10
58929;BMP180;44713;53.378;10.022;2023-02-25T09:44:51;100274.00;;;3.20
58929;BMP180;44713;53.378;10.022;2023-02-25T09:47:28;100294.00;;;3.30
58929;BMP180;44713;53.378;10.022;2023-02-25T09:50:13;100287.00;;;3.20
58929;BMP180;44713;53.378;10.022;2023-02-25T09:52:58;100291.00;;;3.20
58929;BMP180;44713;53.378;10.022;2023-02-25T09:55:35;100295.00;;;3.30
58929;BMP180;44713;53.378;10.022;2023-02-25T09:58:06;100298.00;;;3.20
58929;BMP180;44713;53.378;10.022;2023-02-25T10:00:39;100310.00;;;3.20
58929;BMP180;44713;53.378;10.022;2023-02-25T10:03:18;100310.00;;;3.20
58929;BMP180;44713;53.378;10.022;2023-02-25T10:05:54;100318.00;;;3.20
58929;BMP180;44713;53.378;10.022;2023-02-25T10:08:23;100320.00;;;3.30
58929;BMP180;44713;53.378;10.022;2023-02-25T10:11:12;100332.00;;;3.20
58929;BMP180;44713;53.378;10.022;2023-02-25T10:13:45;100338.00;;;3.20
58929;BMP180;44713;53.378;10.022;2023-02-25T10:16:46;100343.00;;;3.10
58929;BMP180;44713;53.378;10.022;2023-02-25T10:24:48;100353.00;;;3.10
58929;BMP180;44713;53.378;10.022;2023-02-25T10:27:26;100362.00;;;3.10
58929;BMP180;44713;53.378;10.022;2023-02-25T10:29:55;100366.00;;;3.10
58929;BMP180;44713;53.378;10.022;2023-02-25T10:32:26;100367.00;;;3.20
58929;BMP180;44713;53.378;10.022;2023-02-25T10:34:54;100367.00;;;3.20
58929;BMP180;44713;53.378;10.022;2023-02-25T10:37:41;100369.00;;;3.30
58929;BMP180;44713;53.378;10.022;2023-02-25T10:40:06;100375.00;;;3.50
58929;BMP180;44713;53.378;10.022;2023-02-25T10:42:35;100373.00;;;3.60
58929;BMP180;44713;53.378;10.022;2023-02-25T10:45:12;100379.00;;;3.60
58929;BMP180;44713;53.378;10.022;2023-02-25T10:47:42;100389.00;;;3.70
58929;BMP180;44713;53.378;10.022;2023-02-25T10:50:19;100395.00;;;3.80
58929;BMP180;44713;53.378;10.022;2023-02-25T10:53:00;100406.00;;;3.80
58929;BMP180;44713;53.378;10.022;2023-02-25T10:58:23;100417.00;;;3.70
58929;BMP180;44713;53.378;10.022;2023-02-25T11:00:59;100423.00;;;3.80
58929;BMP180;44713;53.378;10.022;2023-02-25T11:03:28;100428.00;;;3.80
58929;BMP180;44713;53.378;10.022;2023-02-25T11:06:08;100437.00;;;3.70
58929;BMP180;44713;53.378;10.022;2023-02-25T11:08:33;100437.00;;;3.60
58929;BMP180;44713;53.378;10.022;2023-02-25T11:11:12;100447.00;;;3.50
58929;BMP180;44713;53.378;10.022;2023-02-25T11:13:38;100457.00;;;3.50
58929;BMP180;44713;53.378;10.022;2023-02-25T11:16:07;100455.00;;;3.50
58929;BMP180;44713;53.378;10.022;2023-02-25T11:18:33;100443.00;;;3.50
58929;BMP180;44713;53.378;10.022;2023-02-25T11:21:02;100448.00;;;3.60
58929;BMP180;44713;53.378;10.022;2023-02-25T11:23:34;100454.00;;;3.70
58929;BMP180;44713;53.378;10.022;2023-02-25T11:26:01;100448.00;;;3.80
58929;BMP180;44713;53.378;10.022;2023-02-25T11:28:30;100442.00;;;3.80
58929;BMP180;44713;53.378;10.022;2023-02-25T11:31:07;100455.00;;;3.80
58929;BMP180;44713;53.378;10.022;2023-02-25T11:33:36;100454.00;;;3.80
58929;BMP180;44713;53.378;10.022;2023-02-25T11:36:04;100458.00;;;3.90
58929;BMP180;44713;53.378;10.022;2023-02-25T11:38:41;100461.00;;;4.00
58929;BMP180;44713;53.378;10.022;2023-02-25T11:41:20;100453.00;;;4.00
58929;BMP180;44713;53.378;10.022;2023-02-25T11:43:46;100457.00;;;3.90
58929;BMP180;44713;53.378;10.022;2023-02-25T11:46:16;100459.00;;;4.10
58929;BMP180;44713;53.378;10.022;2023-02-25T11:49:00;100456.00;;;4.10
58929;BMP180;44713;53.378;10.022;2023-02-25T11:54:07;100456.00;;;4.10
58929;BMP180;44713;53.378;10.022;2023-02-25T11:56:42;100469.00;;;4.10
58929;BMP180;44713;53.378;10.022;2023-02-25T12:24:36;100474.00;;;5.10
58929;BMP180;44713;53.378;10.022;2023-02-25T12:27:15;100489.00;;;5.00
58929;BMP180;44713;53.378;10.022;2023-02-25T12:36:21;100479.00;;;5.60
58929;BMP180;44713;53.378;10.022;2023-02-25T12:41:58;100489.00;;;6.10
58929;BMP180;44713;53.378;10.022;2023-02-25T12:45:04;100497.00;;;5.70
58929;BMP180;44713;53.378;10.022;2023-02-25T12:55:40;100494.00;;;6.30
58929;BMP180;44713;53.378;10.022;2023-02-25T13:01:13;100492.00;;;5.70
58929;BMP180;44713;53.378;10.022;2023-02-25T13:04:02;100499.00;;;5.50
58929;BMP180;44713;53.378;10.022;2023-02-25T13:09:18;100512.00;;;5.40
58929;BMP180;44713;53.378;10.022;2023-02-25T13:12:21;100514.00;;;5.50
58929;BMP180;44713;53.378;10.022;2023-02-25T13:15:12;100519.00;;;5.40
58929;BMP180;44713;53.378;10.022;2023-02-25T13:20:19;100518.00;;;5.80
58929;BMP180;44713;53.378;10.022;2023-02-25T13:23:07;100512.00;;;6.10
58929;BMP180;44713;53.378;10.022;2023-02-25T13:25:57;100524.00;;;6.10
58929;BMP180;44713;53.378;10.022;2023-02-25T13:31:21;100520.00;;;5.80
58929;BMP180;44713;53.378;10.022;2023-02-25T13:33:58;100544.00;;;5.90
58929;BMP180;44713;53.378;10.022;2023-02-25T13:37:02;100542.00;;;6.00
58929;BMP180;44713;53.378;10.022;2023-02-25T13:39:55;100536.00;;;6.10
58929;BMP180;44713;53.378;10.022;2023-02-25T13:42:53;100536.00;;;5.80
58929;BMP180;44713;53.378;10.022;2023-02-25T13:53:55;100547.00;;;5.50
58929;BMP180;44713;53.378;10.022;2023-02-25T13:56:38;100554.00;;;5.50
58929;BMP180;44713;53.378;10.022;2023-02-25T13:59:19;100555.00;;;5.30
58929;BMP180;44713;53.378;10.022;2023-02-25T14:02:14;100571.00;;;5.30
58929;BMP180;44713;53.378;10.022;2023-02-25T14:07:45;100580.00;;;5.60
58929;BMP180;44713;53.378;10.022;2023-02-25T14:10:58;100580.00;;;5.60
58929;BMP180;44713;53.378;10.022;2023-02-25T14:19:37;100597.00;;;6.10
58929;BMP180;44713;53.378;10.022;2023-02-25T14:25:20;100597.00;;;5.90
58929;BMP180;44713;53.378;10.022;2023-02-25T14:28:04;100603.00;;;5.70
58929;BMP180;44713;53.378;10.022;2023-02-25T14:30:54;100610.00;;;5.50
58929;BMP180;44713;53.378;10.022;2023-02-25T14:33:30;100607.00;;;5.50
58929;BMP180;44713;53.378;10.022;2023-02-25T14:43:36;100631.00;;;5.80
58929;BMP180;44713;53.378;10.022;2023-02-25T14:49:16;100648.00;;;6.00
58929;BMP180;44713;53.378;10.022;2023-02-25T15:06:11;100668.00;;;5.10
58929;BMP180;44713;53.378;10.022;2023-02-25T15:11:43;100688.00;;;4.90
58929;BMP180;44713;53.378;10.022;2023-02-25T15:20:12;100702.00;;;5.00
58929;BMP180;44713;53.378;10.022;2023-02-25T15:23:18;100708.00;;;5.20
58929;BMP180;44713;53.378;10.022;2023-02-25T15:28:45;100708.00;;;5.30
58929;BMP180;44713;53.378;10.022;2023-02-25T15:36:43;100724.00;;;5.10
58929;BMP180;44713;53.378;10.022;2023-02-25T15:42:10;100734.00;;;4.90
58929;BMP180;44713;53.378;10.022;2023-02-25T15:44:40;100747.00;;;4.80
58929;BMP180;44713;53.378;10.022;2023-02-25T15:47:16;100745.00;;;4.70
58929;BMP180;44713;53.378;10.022;2023-02-25T15:49:44;100756.00;;;4.60
58929;BMP180;44713;53.378;10.022;2023-02-25T15:52:11;100772.00;;;4.10
58929;BMP180;44713;53.378;10.022;2023-02-25T15:59:48;100781.00;;;2.70
58929;BMP180;44713;53.378;10.022;2023-02-25T16:04:58;100790.00;;;2.70
58929;BMP180;44713;53.378;10.022;2023-02-25T16:08:15;100786.00;;;2.90
58929;BMP180;44713;53.378;10.022;2023-02-25T16:10:44;100789.00;;;3.00
58929;BMP180;44713;53.378;10.022;2023-02-25T16:13:14;100799.00;;;2.80
58929;BMP180;44713;53.378;10.022;2023-02-25T16:15:44;100794.00;;;2.90
58929;BMP180;44713;53.378;10.022;2023-02-25T16:18:35;100797.00;;;2.90
58929;BMP180;44713;53.378;10.022;2023-02-25T16:21:04;100802.00;;;3.00
58929;BMP180;44713;53.378;10.022;2023-02-25T16:23:31;100804.00;;;2.90
58929;BMP180;44713;53.378;10.022;2023-02-25T16:32:04;100814.00;;;2.90
58929;BMP180;44713;53.378;10.022;2023-02-25T16:34:56;100828.00;;;2.80
58929;BMP180;44713;53.378;10.022;2023-02-25T16:37:57;100819.00;;;2.90
58929;BMP180;44713;53.378;10.022;2023-02-25T16:40:28;100821.00;;;2.90
58929;BMP180;44713;53.378;10.022;2023-02-25T16:42:56;100832.00;;;2.90
58929;BMP180;44713;53.378;10.022;2023-02-25T16:45:54;100833.00;;;2.90
58929;BMP180;44713;53.378;10.022;2023-02-25T16:48:26;100847.00;;;2.90
58929;BMP180;44713;53.378;10.022;2023-02-25T16:50:53;100843.00;;;2.80
58929;BMP180;44713;53.378;10.022;2023-02-25T16:53:22;100847.00;;;2.90
58929;BMP180;44713;53.378;10.022;2023-02-25T16:55:48;100853.00;;;2.80
58929;BMP180;44713;53.378;10.022;2023-02-25T17:00:53;100859.00;;;2.90
58929;BMP180;44713;53.378;10.022;2023-02-25T17:03:20;100861.00;;;2.90
58929;BMP180;44713;53.378;10.022;2023-02-25T17:08:28;100869.00;;;2.80